TimeEST,TemperatureF,Dew PointF,Humidity,Sea Level PressureIn,VisibilityMPH,Wind Direction,Wind SpeedMPH,Gust SpeedMPH,PrecipitationIn,Events,Conditions,WindDirDegrees,DateUTC
12:15 AM,39.2,39.2,100,29.54,10.0,West,4.6,-,N/A,,Overcast,270,2013-02-12 05:15:00
12:35 AM,39.2,37.4,93,29.53,10.0,WNW,3.5,-,N/A,,Overcast,290,2013-02-12 05:35:00
12:55 AM,37.4,37.4,100,29.52,10.0,Calm,Calm,-,N/A,,Overcast,0,2013-02-12 05:55:00
1:15 AM,37.4,37.4,100,29.52,10.0,Calm,Calm,-,N/A,,Overcast,0,2013-02-12 06:15:00
1:35 AM,37.4,37.4,100,29.52,10.0,WSW,3.5,-,N/A,,Overcast,250,2013-02-12 06:35:00
1:55 AM,37.4,35.6,93,29.51,10.0,WNW,3.5,-,N/A,,Overcast,290,2013-02-12 06:55:00
2:15 AM,35.6,35.6,100,29.50,9.0,West,3.5,-,N/A,,Overcast,280,2013-02-12 07:15:00
2:35 AM,35.6,35.6,100,29.50,3.0,WNW,4.6,-,N/A,,Overcast,290,2013-02-12 07:35:00
2:55 AM,35.6,35.6,100,29.49,2.5,Calm,Calm,-,N/A,,Overcast,0,2013-02-12 07:55:00
3:15 AM,35.6,35.6,100,29.49,1.2,Calm,Calm,-,N/A,,Overcast,0,2013-02-12 08:15:00
3:35 AM,35.6,35.6,100,29.49,1.2,Calm,Calm,-,N/A,,Overcast,0,2013-02-12 08:35:00
3:55 AM,35.6,35.6,100,29.48,0.5,Calm,Calm,-,N/A,,Overcast,0,2013-02-12 08:55:00
4:15 AM,35.6,33.8,93,29.47,1.2,Calm,Calm,-,N/A,,Overcast,0,2013-02-12 09:15:00
4:35 AM,33.8,33.8,100,29.47,1.0,Calm,Calm,-,N/A,,Overcast,0,2013-02-12 09:35:00
4:55 AM,33.8,33.8,100,29.48,3.0,SSW,4.6,-,N/A,,Overcast,210,2013-02-12 09:55:00
5:15 AM,33.8,33.8,100,29.49,5.0,WSW,5.8,-,N/A,,Overcast,240,2013-02-12 10:15:00
5:35 AM,33.8,33.8,100,29.50,5.0,WSW,4.6,-,0.01,,Overcast,250,2013-02-12 10:35:00
6:15 AM,33.8,33.8,100,29.49,10.0,Calm,Calm,-,N/A,,Overcast,0,2013-02-12 11:15:00
6:35 AM,33.8,33.8,100,29.48,10.0,Calm,Calm,-,N/A,,Overcast,0,2013-02-12 11:35:00
6:55 AM,33.8,33.8,100,29.49,10.0,SW,3.5,-,N/A,,Overcast,230,2013-02-12 11:55:00
7:15 AM,33.8,33.8,100,29.50,10.0,Calm,Calm,-,N/A,,Overcast,0,2013-02-12 12:15:00
7:35 AM,33.8,33.8,100,29.50,10.0,SW,3.5,-,N/A,,Overcast,230,2013-02-12 12:35:00
7:56 AM,33.8,33.8,100,29.51,10.0,SW,3.5,-,N/A,,Overcast,220,2013-02-12 12:56:00
8:15 AM,33.8,33.8,100,29.51,10.0,WSW,3.5,-,N/A,,Overcast,240,2013-02-12 13:15:00
8:35 AM,35.6,35.6,100,29.51,10.0,WSW,3.5,-,N/A,,Overcast,240,2013-02-12 13:35:00
8:55 AM,35.6,33.8,93,29.51,10.0,West,4.6,-,N/A,,Scattered Clouds,260,2013-02-12 13:55:00
9:15 AM,37.4,35.6,93,29.51,10.0,WSW,5.8,-,N/A,,Clear,250,2013-02-12 14:15:00
9:55 AM,39.2,37.4,93,29.52,10.0,WSW,8.1,-,N/A,,Mostly Cloudy,240,2013-02-12 14:55:00
10:15 AM,37.4,35.6,93,29.52,10.0,West,9.2,-,N/A,,Overcast,270,2013-02-12 15:15:00
10:35 AM,37.4,35.6,93,29.52,10.0,West,6.9,-,N/A,,Overcast,260,2013-02-12 15:35:00
10:55 AM,39.2,33.8,81,29.52,10.0,West,8.1,-,N/A,,Overcast,260,2013-02-12 15:55:00
11:15 AM,39.2,33.8,81,29.52,10.0,WSW,8.1,-,N/A,,Overcast,250,2013-02-12 16:15:00
11:36 AM,39.2,33.8,81,29.52,10.0,WSW,6.9,-,N/A,,Overcast,250,2013-02-12 16:36:00
11:55 AM,39.2,33.8,81,29.52,10.0,West,5.8,-,N/A,,Overcast,260,2013-02-12 16:55:00
12:15 PM,39.2,33.8,81,29.52,10.0,West,8.1,-,N/A,,Overcast,260,2013-02-12 17:15:00
12:35 PM,39.2,33.8,81,29.52,10.0,West,9.2,-,N/A,,Overcast,260,2013-02-12 17:35:00
12:55 PM,39.2,33.8,81,29.52,10.0,West,8.1,18.4,N/A,,Overcast,260,2013-02-12 17:55:00
1:15 PM,39.2,32.0,75,29.52,10.0,West,8.1,-,N/A,,Overcast,260,2013-02-12 18:15:00
1:35 PM,39.2,32.0,75,29.53,10.0,WSW,6.9,-,N/A,,Overcast,250,2013-02-12 18:35:00
1:55 PM,39.2,32.0,75,29.53,10.0,West,6.9,-,N/A,,Overcast,260,2013-02-12 18:55:00
2:15 PM,39.2,32.0,75,29.53,10.0,West,6.9,-,N/A,,Overcast,260,2013-02-12 19:15:00
2:35 PM,39.2,32.0,75,29.53,10.0,West,9.2,-,N/A,,Overcast,260,2013-02-12 19:35:00
2:55 PM,41.0,32.0,70,29.54,10.0,WSW,4.6,-,N/A,,Overcast,250,2013-02-12 19:55:00
3:15 PM,41.0,32.0,70,29.54,10.0,West,5.8,-,N/A,,Overcast,270,2013-02-12 20:15:00
3:35 PM,41.0,30.2,65,29.54,10.0,West,6.9,-,N/A,,Overcast,270,2013-02-12 20:35:00
3:55 PM,41.0,30.2,65,29.55,10.0,West,3.5,-,N/A,,Mostly Cloudy,260,2013-02-12 20:55:00
4:15 PM,41.0,30.2,65,29.55,10.0,West,6.9,-,N/A,,Overcast,260,2013-02-12 21:15:00
4:35 PM,41.0,30.2,65,29.55,10.0,West,6.9,-,N/A,,Overcast,260,2013-02-12 21:35:00
4:55 PM,39.2,32.0,75,29.55,10.0,WSW,6.9,-,N/A,,Overcast,240,2013-02-12 21:55:00
5:15 PM,39.2,30.2,70,29.56,10.0,West,6.9,-,N/A,,Overcast,260,2013-02-12 22:15:00
5:35 PM,39.2,30.2,70,29.57,10.0,West,6.9,-,N/A,,Overcast,260,2013-02-12 22:35:00
5:55 PM,39.2,30.2,70,29.58,10.0,WSW,5.8,-,N/A,,Overcast,240,2013-02-12 22:55:00
6:15 PM,39.2,30.2,70,29.59,10.0,West,3.5,-,N/A,,Overcast,260,2013-02-12 23:15:00
6:35 PM,39.2,30.2,70,29.60,10.0,West,5.8,-,N/A,,Overcast,260,2013-02-12 23:35:00
6:55 PM,39.2,30.2,70,29.60,10.0,Calm,Calm,-,N/A,,Overcast,0,2013-02-12 23:55:00
7:15 PM,37.4,30.2,75,29.61,10.0,WSW,3.5,-,N/A,,Overcast,240,2013-02-13 00:15:00
7:35 PM,39.2,30.2,70,29.62,10.0,West,4.6,-,N/A,,Overcast,260,2013-02-13 00:35:00
7:55 PM,39.2,30.2,70,29.62,10.0,West,9.2,-,N/A,,Overcast,260,2013-02-13 00:55:00
8:15 PM,39.2,30.2,70,29.63,10.0,WSW,4.6,-,N/A,,Overcast,250,2013-02-13 01:15:00
8:35 PM,37.4,30.2,75,29.65,10.0,WSW,5.8,-,N/A,,Overcast,240,2013-02-13 01:35:00
8:55 PM,37.4,30.2,75,29.66,10.0,WSW,5.8,-,N/A,,Overcast,250,2013-02-13 01:55:00
9:15 PM,37.4,30.2,75,29.67,10.0,West,5.8,-,N/A,,Overcast,270,2013-02-13 02:15:00
9:35 PM,37.4,30.2,75,29.67,10.0,WSW,5.8,-,N/A,,Overcast,250,2013-02-13 02:35:00
9:55 PM,37.4,30.2,75,29.68,10.0,WSW,3.5,-,N/A,,Overcast,250,2013-02-13 02:55:00
10:15 PM,35.6,30.2,81,29.68,10.0,West,4.6,-,N/A,,Mostly Cloudy,260,2013-02-13 03:15:00
10:35 PM,35.6,30.2,81,29.69,10.0,West,5.8,-,N/A,,Clear,260,2013-02-13 03:35:00
10:55 PM,35.6,30.2,81,29.70,10.0,West,3.5,-,N/A,,Clear,260,2013-02-13 03:55:00
11:15 PM,35.6,28.4,75,29.71,10.0,West,4.6,-,N/A,,Partly Cloudy,270,2013-02-13 04:15:00
11:35 PM,37.4,30.2,75,29.71,10.0,SSW,3.5,-,N/A,,Mostly Cloudy,210,2013-02-13 04:35:00
11:55 PM,37.4,30.2,75,29.71,10.0,WNW,3.5,-,N/A,,Overcast,290,2013-02-13 04:55:00